sensor_id;sensor_type;location;lat;lon;timestamp;P1;durP1;ratioP1;P2;durP2;ratioP2
54665;SDS011;40566;50.006;36.180;2023-03-23T00:02:40;46.20;;;17.83;;
54665;SDS011;40566;50.006;36.180;2023-03-23T00:07:40;40.20;;;16.80;;
54665;SDS011;40566;50.006;36.180;2023-03-23T00:12:45;41.08;;;15.05;;
54665;SDS011;40566;50.006;36.180;2023-03-23T00:17:49;43.92;;;16.52;;
54665;SDS011;40566;50.006;36.180;2023-03-23T00:22:51;43.85;;;17.05;;
54665;SDS011;40566;50.006;36.180;2023-03-23T00:27:51;51.25;;;20.33;;
54665;SDS011;40566;50.006;36.180;2023-03-23T00:32:52;48.33;;;19.98;;
54665;SDS011;40566;50.006;36.180;2023-03-23T00:37:52;44.08;;;19.42;;
54665;SDS011;40566;50.006;36.180;2023-03-23T00:42:53;43.22;;;15.90;;
54665;SDS011;40566;50.006;36.180;2023-03-23T00:47:54;51.75;;;19.95;;
54665;SDS011;40566;50.006;36.180;2023-03-23T00:52:54;55.53;;;21.25;;
54665;SDS011;40566;50.006;36.180;2023-03-23T00:57:56;50.65;;;19.50;;
54665;SDS011;40566;50.006;36.180;2023-03-23T01:02:57;42.35;;;16.75;;
54665;SDS011;40566;50.006;36.180;2023-03-23T01:07:58;47.25;;;17.75;;
54665;SDS011;40566;50.006;36.180;2023-03-23T01:12:59;46.97;;;19.52;;
54665;SDS011;40566;50.006;36.180;2023-03-23T01:18:00;47.75;;;19.85;;
54665;SDS011;40566;50.006;36.180;2023-03-23T01:23:02;39.80;;;14.65;;
54665;SDS011;40566;50.006;36.180;2023-03-23T01:28:03;47.22;;;19.88;;
54665;SDS011;40566;50.006;36.180;2023-03-23T01:33:04;41.13;;;17.95;;
54665;SDS011;40566;50.006;36.180;2023-03-23T01:38:05;43.45;;;18.95;;
54665;SDS011;40566;50.006;36.180;2023-03-23T01:43:09;59.30;;;20.42;;
54665;SDS011;40566;50.006;36.180;2023-03-23T01:48:18;47.17;;;21.05;;
54665;SDS011;40566;50.006;36.180;2023-03-23T01:53:26;59.08;;;20.70;;
54665;SDS011;40566;50.006;36.180;2023-03-23T01:58:32;53.72;;;20.30;;
54665;SDS011;40566;50.006;36.180;2023-03-23T02:03:35;54.42;;;20.55;;
54665;SDS011;40566;50.006;36.180;2023-03-23T02:08:38;48.05;;;19.00;;
54665;SDS011;40566;50.006;36.180;2023-03-23T02:13:43;67.38;;;24.73;;
54665;SDS011;40566;50.006;36.180;2023-03-23T02:24:02;63.17;;;21.23;;
54665;SDS011;40566;50.006;36.180;2023-03-23T02:29:39;41.83;;;16.50;;
54665;SDS011;40566;50.006;36.180;2023-03-23T02:35:28;45.20;;;17.20;;
54665;SDS011;40566;50.006;36.180;2023-03-23T02:40:47;39.20;;;17.25;;
54665;SDS011;40566;50.006;36.180;2023-03-23T02:45:50;55.67;;;17.27;;
54665;SDS011;40566;50.006;36.180;2023-03-23T02:50:52;37.40;;;15.85;;
54665;SDS011;40566;50.006;36.180;2023-03-23T02:55:54;43.97;;;16.90;;
54665;SDS011;40566;50.006;36.180;2023-03-23T03:06:27;40.97;;;16.30;;
54665;SDS011;40566;50.006;36.180;2023-03-23T03:11:34;41.70;;;16.77;;
54665;SDS011;40566;50.006;36.180;2023-03-23T03:16:43;46.20;;;18.20;;
54665;SDS011;40566;50.006;36.180;2023-03-23T03:21:45;48.85;;;18.50;;
54665;SDS011;40566;50.006;36.180;2023-03-23T03:26:49;49.17;;;19.10;;
54665;SDS011;40566;50.006;36.180;2023-03-23T03:31:57;39.58;;;15.48;;
54665;SDS011;40566;50.006;36.180;2023-03-23T03:37:00;35.88;;;15.52;;
54665;SDS011;40566;50.006;36.180;2023-03-23T03:42:01;32.45;;;12.25;;
54665;SDS011;40566;50.006;36.180;2023-03-23T03:47:01;43.83;;;14.85;;
54665;SDS011;40566;50.006;36.180;2023-03-23T03:52:02;32.97;;;13.68;;
54665;SDS011;40566;50.006;36.180;2023-03-23T03:57:03;34.00;;;13.15;;
54665;SDS011;40566;50.006;36.180;2023-03-23T04:02:03;33.53;;;13.68;;
54665;SDS011;40566;50.006;36.180;2023-03-23T04:07:04;37.47;;;14.23;;
54665;SDS011;40566;50.006;36.180;2023-03-23T04:12:05;40.95;;;15.25;;
54665;SDS011;40566;50.006;36.180;2023-03-23T04:17:06;45.53;;;20.63;;
54665;SDS011;40566;50.006;36.180;2023-03-23T04:22:09;48.95;;;20.35;;
54665;SDS011;40566;50.006;36.180;2023-03-23T04:27:10;60.70;;;23.95;;
54665;SDS011;40566;50.006;36.180;2023-03-23T04:32:13;65.40;;;27.88;;
54665;SDS011;40566;50.006;36.180;2023-03-23T04:37:14;51.53;;;21.00;;
54665;SDS011;40566;50.006;36.180;2023-03-23T04:42:14;65.70;;;26.50;;
54665;SDS011;40566;50.006;36.180;2023-03-23T04:47:15;68.50;;;25.88;;
54665;SDS011;40566;50.006;36.180;2023-03-23T04:52:17;76.20;;;39.72;;
54665;SDS011;40566;50.006;36.180;2023-03-23T04:57:20;53.80;;;22.60;;
54665;SDS011;40566;50.006;36.180;2023-03-23T05:02:21;68.05;;;26.30;;
54665;SDS011;40566;50.006;36.180;2023-03-23T05:07:21;59.97;;;24.73;;
54665;SDS011;40566;50.006;36.180;2023-03-23T05:12:22;53.47;;;25.00;;
54665;SDS011;40566;50.006;36.180;2023-03-23T05:17:22;62.58;;;24.80;;
54665;SDS011;40566;50.006;36.180;2023-03-23T05:22:26;67.40;;;24.60;;
54665;SDS011;40566;50.006;36.180;2023-03-23T05:27:28;67.13;;;26.20;;
54665;SDS011;40566;50.006;36.180;2023-03-23T05:32:30;75.07;;;28.90;;
54665;SDS011;40566;50.006;36.180;2023-03-23T05:37:31;87.18;;;28.50;;
54665;SDS011;40566;50.006;36.180;2023-03-23T05:42:33;76.63;;;28.48;;
54665;SDS011;40566;50.006;36.180;2023-03-23T05:47:34;62.00;;;24.55;;
54665;SDS011;40566;50.006;36.180;2023-03-23T05:52:35;43.92;;;19.17;;
54665;SDS011;40566;50.006;36.180;2023-03-23T05:57:36;51.47;;;18.80;;
54665;SDS011;40566;50.006;36.180;2023-03-23T06:02:37;64.75;;;31.42;;
54665;SDS011;40566;50.006;36.180;2023-03-23T06:07:37;43.63;;;17.15;;
54665;SDS011;40566;50.006;36.180;2023-03-23T06:12:39;53.88;;;18.80;;
54665;SDS011;40566;50.006;36.180;2023-03-23T06:17:41;47.58;;;19.90;;
54665;SDS011;40566;50.006;36.180;2023-03-23T06:22:42;51.10;;;23.42;;
54665;SDS011;40566;50.006;36.180;2023-03-23T06:27:42;56.15;;;29.58;;
54665;SDS011;40566;50.006;36.180;2023-03-23T06:32:43;51.28;;;25.33;;
54665;SDS011;40566;50.006;36.180;2023-03-23T06:37:47;70.03;;;24.85;;
54665;SDS011;40566;50.006;36.180;2023-03-23T06:42:47;58.15;;;31.38;;
54665;SDS011;40566;50.006;36.180;2023-03-23T06:47:48;59.17;;;28.40;;
54665;SDS011;40566;50.006;36.180;2023-03-23T06:52:49;60.97;;;32.13;;
54665;SDS011;40566;50.006;36.180;2023-03-23T06:57:51;54.28;;;21.90;;
54665;SDS011;40566;50.006;36.180;2023-03-23T07:02:51;63.72;;;28.83;;
54665;SDS011;40566;50.006;36.180;2023-03-23T07:07:52;59.40;;;28.55;;
54665;SDS011;40566;50.006;36.180;2023-03-23T07:12:53;59.33;;;29.08;;
54665;SDS011;40566;50.006;36.180;2023-03-23T07:17:53;49.45;;;24.27;;
54665;SDS011;40566;50.006;36.180;2023-03-23T07:22:55;48.25;;;21.70;;
54665;SDS011;40566;50.006;36.180;2023-03-23T07:27:56;41.35;;;19.48;;
54665;SDS011;40566;50.006;36.180;2023-03-23T07:32:57;42.10;;;19.85;;
54665;SDS011;40566;50.006;36.180;2023-03-23T07:37:58;39.03;;;19.23;;
54665;SDS011;40566;50.006;36.180;2023-03-23T07:42:59;39.28;;;18.50;;
54665;SDS011;40566;50.006;36.180;2023-03-23T07:48:00;39.08;;;18.02;;
54665;SDS011;40566;50.006;36.180;2023-03-23T07:53:01;40.70;;;18.10;;
54665;SDS011;40566;50.006;36.180;2023-03-23T07:58:01;40.78;;;17.55;;
54665;SDS011;40566;50.006;36.180;2023-03-23T08:03:04;38.95;;;18.02;;
54665;SDS011;40566;50.006;36.180;2023-03-23T08:08:06;34.22;;;17.80;;
54665;SDS011;40566;50.006;36.180;2023-03-23T08:13:07;36.63;;;18.73;;
54665;SDS011;40566;50.006;36.180;2023-03-23T08:18:09;36.72;;;17.15;;
54665;SDS011;40566;50.006;36.180;2023-03-23T08:23:10;36.80;;;17.33;;
54665;SDS011;40566;50.006;36.180;2023-03-23T08:28:11;35.20;;;18.15;;
54665;SDS011;40566;50.006;36.180;2023-03-23T08:33:14;38.28;;;17.90;;
54665;SDS011;40566;50.006;36.180;2023-03-23T08:38:14;35.40;;;18.98;;
54665;SDS011;40566;50.006;36.180;2023-03-23T08:43:15;36.13;;;17.92;;
54665;SDS011;40566;50.006;36.180;2023-03-23T08:48:15;33.90;;;16.52;;
54665;SDS011;40566;50.006;36.180;2023-03-23T08:53:16;35.67;;;15.23;;
54665;SDS011;40566;50.006;36.180;2023-03-23T08:58:17;41.92;;;18.35;;
54665;SDS011;40566;50.006;36.180;2023-03-23T09:03:18;31.77;;;14.57;;
54665;SDS011;40566;50.006;36.180;2023-03-23T09:08:18;33.47;;;16.13;;
54665;SDS011;40566;50.006;36.180;2023-03-23T09:13:20;31.20;;;15.93;;
54665;SDS011;40566;50.006;36.180;2023-03-23T09:18:20;30.90;;;14.60;;
54665;SDS011;40566;50.006;36.180;2023-03-23T09:23:22;28.27;;;13.90;;
54665;SDS011;40566;50.006;36.180;2023-03-23T09:28:22;27.25;;;13.15;;
54665;SDS011;40566;50.006;36.180;2023-03-23T09:33:23;29.77;;;13.85;;
54665;SDS011;40566;50.006;36.180;2023-03-23T09:38:24;25.90;;;12.88;;
54665;SDS011;40566;50.006;36.180;2023-03-23T09:48:55;21.73;;;10.45;;
54665;SDS011;40566;50.006;36.180;2023-03-23T09:54:01;20.25;;;11.05;;
54665;SDS011;40566;50.006;36.180;2023-03-23T10:04:41;22.98;;;10.80;;
54665;SDS011;40566;50.006;36.180;2023-03-23T10:09:45;21.27;;;10.70;;
54665;SDS011;40566;50.006;36.180;2023-03-23T10:14:52;25.20;;;9.63;;
54665;SDS011;40566;50.006;36.180;2023-03-23T10:31:05;16.85;;;8.43;;
54665;SDS011;40566;50.006;36.180;2023-03-23T10:36:18;20.55;;;9.05;;
54665;SDS011;40566;50.006;36.180;2023-03-23T10:41:22;21.95;;;9.07;;
54665;SDS011;40566;50.006;36.180;2023-03-23T10:51:57;15.60;;;7.17;;
54665;SDS011;40566;50.006;36.180;2023-03-23T11:02:38;13.60;;;6.53;;
54665;SDS011;40566;50.006;36.180;2023-03-23T11:07:47;13.82;;;6.18;;
54665;SDS011;40566;50.006;36.180;2023-03-23T11:12:50;13.80;;;6.80;;
54665;SDS011;40566;50.006;36.180;2023-03-23T11:17:56;16.73;;;7.05;;
54665;SDS011;40566;50.006;36.180;2023-03-23T11:22:58;15.98;;;6.70;;
54665;SDS011;40566;50.006;36.180;2023-03-23T11:27:59;14.80;;;6.88;;
54665;SDS011;40566;50.006;36.180;2023-03-23T11:33:01;16.42;;;7.45;;
54665;SDS011;40566;50.006;36.180;2023-03-23T11:38:02;13.95;;;7.00;;
54665;SDS011;40566;50.006;36.180;2023-03-23T11:43:11;21.38;;;8.50;;
54665;SDS011;40566;50.006;36.180;2023-03-23T11:58:38;15.70;;;7.40;;
54665;SDS011;40566;50.006;36.180;2023-03-23T12:20:14;12.68;;;6.80;;
54665;SDS011;40566;50.006;36.180;2023-03-23T12:31:01;14.38;;;7.00;;
54665;SDS011;40566;50.006;36.180;2023-03-23T12:36:09;17.83;;;7.78;;
54665;SDS011;40566;50.006;36.180;2023-03-23T12:57:18;20.25;;;8.82;;
54665;SDS011;40566;50.006;36.180;2023-03-23T13:02:25;15.40;;;7.43;;
54665;SDS011;40566;50.006;36.180;2023-03-23T13:07:35;21.85;;;9.68;;
54665;SDS011;40566;50.006;36.180;2023-03-23T13:12:46;20.40;;;7.45;;
54665;SDS011;40566;50.006;36.180;2023-03-23T13:17:52;14.52;;;7.13;;
54665;SDS011;40566;50.006;36.180;2023-03-23T13:23:04;21.02;;;10.15;;
54665;SDS011;40566;50.006;36.180;2023-03-23T13:28:20;18.23;;;8.55;;
54665;SDS011;40566;50.006;36.180;2023-03-23T13:33:28;19.30;;;9.52;;
54665;SDS011;40566;50.006;36.180;2023-03-23T13:38:31;18.60;;;8.50;;
54665;SDS011;40566;50.006;36.180;2023-03-23T13:43:32;19.70;;;10.18;;
54665;SDS011;40566;50.006;36.180;2023-03-23T13:48:45;16.75;;;7.82;;
54665;SDS011;40566;50.006;36.180;2023-03-23T13:53:51;18.00;;;8.85;;
54665;SDS011;40566;50.006;36.180;2023-03-23T13:59:04;16.92;;;9.13;;
54665;SDS011;40566;50.006;36.180;2023-03-23T14:04:12;17.48;;;8.38;;
54665;SDS011;40566;50.006;36.180;2023-03-23T14:09:17;18.23;;;9.30;;
54665;SDS011;40566;50.006;36.180;2023-03-23T14:15:04;19.38;;;9.57;;
54665;SDS011;40566;50.006;36.180;2023-03-23T14:19:48;17.98;;;9.07;;
54665;SDS011;40566;50.006;36.180;2023-03-23T14:30:17;23.92;;;9.30;;
54665;SDS011;40566;50.006;36.180;2023-03-23T14:35:32;38.55;;;16.90;;
54665;SDS011;40566;50.006;36.180;2023-03-23T14:40:35;32.88;;;17.75;;
54665;SDS011;40566;50.006;36.180;2023-03-23T14:45:36;40.80;;;19.95;;
54665;SDS011;40566;50.006;36.180;2023-03-23T14:50:38;33.05;;;16.27;;
54665;SDS011;40566;50.006;36.180;2023-03-23T14:55:41;27.45;;;13.18;;
54665;SDS011;40566;50.006;36.180;2023-03-23T15:00:53;29.45;;;12.93;;
54665;SDS011;40566;50.006;36.180;2023-03-23T15:05:59;28.92;;;12.30;;
54665;SDS011;40566;50.006;36.180;2023-03-23T15:16:32;31.02;;;12.57;;
54665;SDS011;40566;50.006;36.180;2023-03-23T15:21:35;36.70;;;15.48;;
54665;SDS011;40566;50.006;36.180;2023-03-23T15:26:47;32.53;;;13.63;;
54665;SDS011;40566;50.006;36.180;2023-03-23T15:31:52;36.20;;;15.43;;
54665;SDS011;40566;50.006;36.180;2023-03-23T15:36:56;43.90;;;20.55;;
54665;SDS011;40566;50.006;36.180;2023-03-23T15:41:59;63.83;;;26.58;;
54665;SDS011;40566;50.006;36.180;2023-03-23T15:47:18;44.70;;;19.60;;
54665;SDS011;40566;50.006;36.180;2023-03-23T15:52:21;77.50;;;34.72;;
54665;SDS011;40566;50.006;36.180;2023-03-23T15:57:22;65.95;;;27.98;;
54665;SDS011;40566;50.006;36.180;2023-03-23T16:02:22;62.63;;;26.70;;
54665;SDS011;40566;50.006;36.180;2023-03-23T16:07:24;70.82;;;30.08;;
54665;SDS011;40566;50.006;36.180;2023-03-23T16:12:25;67.03;;;30.65;;
54665;SDS011;40566;50.006;36.180;2023-03-23T16:17:26;86.07;;;37.00;;
54665;SDS011;40566;50.006;36.180;2023-03-23T16:22:26;139.43;;;57.85;;
54665;SDS011;40566;50.006;36.180;2023-03-23T16:27:27;125.32;;;53.20;;
54665;SDS011;40566;50.006;36.180;2023-03-23T16:32:27;119.07;;;50.42;;
54665;SDS011;40566;50.006;36.180;2023-03-23T16:37:28;104.25;;;46.67;;
54665;SDS011;40566;50.006;36.180;2023-03-23T16:42:32;105.50;;;45.38;;
54665;SDS011;40566;50.006;36.180;2023-03-23T16:47:33;102.00;;;44.88;;
54665;SDS011;40566;50.006;36.180;2023-03-23T16:52:33;115.95;;;46.92;;
54665;SDS011;40566;50.006;36.180;2023-03-23T16:57:34;102.28;;;45.35;;
54665;SDS011;40566;50.006;36.180;2023-03-23T17:02:36;111.85;;;46.83;;
54665;SDS011;40566;50.006;36.180;2023-03-23T17:07:39;118.38;;;50.63;;
54665;SDS011;40566;50.006;36.180;2023-03-23T17:12:41;105.55;;;44.80;;
54665;SDS011;40566;50.006;36.180;2023-03-23T17:17:42;104.68;;;44.55;;
54665;SDS011;40566;50.006;36.180;2023-03-23T17:22:43;103.15;;;44.33;;
54665;SDS011;40566;50.006;36.180;2023-03-23T17:27:44;110.18;;;49.03;;
54665;SDS011;40566;50.006;36.180;2023-03-23T17:32:44;110.25;;;50.65;;
54665;SDS011;40566;50.006;36.180;2023-03-23T17:37:47;110.07;;;48.05;;
54665;SDS011;40566;50.006;36.180;2023-03-23T17:42:47;117.32;;;51.47;;
54665;SDS011;40566;50.006;36.180;2023-03-23T17:47:48;132.07;;;54.88;;
54665;SDS011;40566;50.006;36.180;2023-03-23T17:52:49;128.93;;;55.22;;
54665;SDS011;40566;50.006;36.180;2023-03-23T17:57:49;120.63;;;53.72;;
54665;SDS011;40566;50.006;36.180;2023-03-23T18:02:50;110.97;;;51.35;;
54665;SDS011;40566;50.006;36.180;2023-03-23T18:07:51;112.90;;;51.05;;
54665;SDS011;40566;50.006;36.180;2023-03-23T18:12:51;104.13;;;48.33;;
54665;SDS011;40566;50.006;36.180;2023-03-23T18:17:52;96.50;;;44.33;;
54665;SDS011;40566;50.006;36.180;2023-03-23T18:22:52;98.63;;;42.20;;
54665;SDS011;40566;50.006;36.180;2023-03-23T18:27:53;87.57;;;42.47;;
54665;SDS011;40566;50.006;36.180;2023-03-23T18:32:54;80.50;;;38.45;;
54665;SDS011;40566;50.006;36.180;2023-03-23T18:37:54;87.28;;;42.58;;
54665;SDS011;40566;50.006;36.180;2023-03-23T18:42:55;89.20;;;41.58;;
54665;SDS011;40566;50.006;36.180;2023-03-23T18:47:56;85.00;;;37.75;;
54665;SDS011;40566;50.006;36.180;2023-03-23T18:52:57;81.32;;;39.92;;
54665;SDS011;40566;50.006;36.180;2023-03-23T18:57:57;76.35;;;38.85;;
54665;SDS011;40566;50.006;36.180;2023-03-23T19:02:59;73.63;;;38.67;;
54665;SDS011;40566;50.006;36.180;2023-03-23T19:07:59;75.65;;;39.28;;
54665;SDS011;40566;50.006;36.180;2023-03-23T19:13:00;78.15;;;39.15;;
54665;SDS011;40566;50.006;36.180;2023-03-23T19:18:00;74.22;;;37.72;;
54665;SDS011;40566;50.006;36.180;2023-03-23T19:23:01;71.18;;;38.63;;
54665;SDS011;40566;50.006;36.180;2023-03-23T19:28:02;76.30;;;38.63;;
54665;SDS011;40566;50.006;36.180;2023-03-23T19:33:02;80.75;;;39.58;;
54665;SDS011;40566;50.006;36.180;2023-03-23T19:38:03;72.60;;;39.63;;
54665;SDS011;40566;50.006;36.180;2023-03-23T19:43:03;76.15;;;40.45;;
54665;SDS011;40566;50.006;36.180;2023-03-23T19:48:04;82.07;;;41.83;;
54665;SDS011;40566;50.006;36.180;2023-03-23T19:53:05;76.30;;;39.70;;
54665;SDS011;40566;50.006;36.180;2023-03-23T19:58:06;74.53;;;37.53;;
54665;SDS011;40566;50.006;36.180;2023-03-23T20:03:07;70.72;;;36.90;;
54665;SDS011;40566;50.006;36.180;2023-03-23T20:08:07;69.03;;;35.70;;
54665;SDS011;40566;50.006;36.180;2023-03-23T20:13:09;66.20;;;36.30;;
54665;SDS011;40566;50.006;36.180;2023-03-23T20:18:10;72.45;;;37.35;;
54665;SDS011;40566;50.006;36.180;2023-03-23T20:23:13;69.70;;;36.05;;
54665;SDS011;40566;50.006;36.180;2023-03-23T20:28:14;69.55;;;37.00;;
54665;SDS011;40566;50.006;36.180;2023-03-23T20:33:14;75.57;;;37.40;;
54665;SDS011;40566;50.006;36.180;2023-03-23T20:38:15;72.30;;;36.80;;
54665;SDS011;40566;50.006;36.180;2023-03-23T20:43:17;72.22;;;35.08;;
54665;SDS011;40566;50.006;36.180;2023-03-23T20:48:18;64.20;;;36.08;;
54665;SDS011;40566;50.006;36.180;2023-03-23T20:53:19;70.00;;;34.78;;
54665;SDS011;40566;50.006;36.180;2023-03-23T20:58:20;67.90;;;34.90;;
54665;SDS011;40566;50.006;36.180;2023-03-23T21:03:42;66.63;;;33.33;;
54665;SDS011;40566;50.006;36.180;2023-03-23T21:08:43;63.33;;;33.00;;
54665;SDS011;40566;50.006;36.180;2023-03-23T21:13:44;75.65;;;35.70;;
54665;SDS011;40566;50.006;36.180;2023-03-23T21:18:45;68.80;;;34.13;;
54665;SDS011;40566;50.006;36.180;2023-03-23T21:23:46;62.25;;;34.88;;
54665;SDS011;40566;50.006;36.180;2023-03-23T21:28:51;64.75;;;34.92;;
54665;SDS011;40566;50.006;36.180;2023-03-23T21:33:52;67.63;;;35.17;;
54665;SDS011;40566;50.006;36.180;2023-03-23T21:38:53;72.13;;;37.03;;
54665;SDS011;40566;50.006;36.180;2023-03-23T21:43:55;69.97;;;36.75;;
54665;SDS011;40566;50.006;36.180;2023-03-23T21:48:56;71.40;;;37.03;;
54665;SDS011;40566;50.006;36.180;2023-03-23T21:53:58;68.40;;;36.17;;
54665;SDS011;40566;50.006;36.180;2023-03-23T21:58:58;67.80;;;36.58;;
54665;SDS011;40566;50.006;36.180;2023-03-23T22:04:00;70.30;;;37.45;;
54665;SDS011;40566;50.006;36.180;2023-03-23T22:09:02;69.85;;;38.40;;
54665;SDS011;40566;50.006;36.180;2023-03-23T22:14:04;66.95;;;37.30;;
54665;SDS011;40566;50.006;36.180;2023-03-23T22:19:05;70.63;;;37.50;;
54665;SDS011;40566;50.006;36.180;2023-03-23T22:24:06;73.78;;;39.08;;
54665;SDS011;40566;50.006;36.180;2023-03-23T22:29:07;77.38;;;41.22;;
54665;SDS011;40566;50.006;36.180;2023-03-23T22:34:10;79.65;;;41.33;;
54665;SDS011;40566;50.006;36.180;2023-03-23T22:39:11;72.78;;;40.55;;
54665;SDS011;40566;50.006;36.180;2023-03-23T22:44:13;71.13;;;40.80;;
54665;SDS011;40566;50.006;36.180;2023-03-23T22:49:17;68.53;;;39.70;;
54665;SDS011;40566;50.006;36.180;2023-03-23T22:54:17;55.85;;;23.88;;
54665;SDS011;40566;50.006;36.180;2023-03-23T22:59:18;73.70;;;41.03;;
54665;SDS011;40566;50.006;36.180;2023-03-23T23:04:19;78.05;;;42.58;;
54665;SDS011;40566;50.006;36.180;2023-03-23T23:09:20;51.95;;;24.70;;
54665;SDS011;40566;50.006;36.180;2023-03-23T23:14:21;75.15;;;43.22;;
54665;SDS011;40566;50.006;36.180;2023-03-23T23:19:21;76.80;;;44.78;;
54665;SDS011;40566;50.006;36.180;2023-03-23T23:24:22;78.68;;;44.60;;
54665;SDS011;40566;50.006;36.180;2023-03-23T23:29:25;76.15;;;45.10;;
54665;SDS011;40566;50.006;36.180;2023-03-23T23:34:26;76.85;;;44.10;;
54665;SDS011;40566;50.006;36.180;2023-03-23T23:39:27;75.25;;;45.33;;
54665;SDS011;40566;50.006;36.180;2023-03-23T23:44:29;58.50;;;27.88;;
54665;SDS011;40566;50.006;36.180;2023-03-23T23:49:30;60.33;;;28.08;;
54665;SDS011;40566;50.006;36.180;2023-03-23T23:54:33;78.30;;;47.42;;
54665;SDS011;40566;50.006;36.180;2023-03-23T23:59:35;62.17;;;29.70;;
